sensor_id;sensor_type;location;lat;lon;timestamp;pressure;altitude;pressure_sealevel;temperature;humidity
52745;BME280;38637;49.984;20.426;2022-07-05T00:00:38;99308.47;;;21.97;70.79
52745;BME280;38637;49.984;20.426;2022-07-05T00:03:03;99324.53;;;21.91;70.87
52745;BME280;38637;49.984;20.426;2022-07-05T00:05:30;99321.00;;;21.82;71.69
52745;BME280;38637;49.984;20.426;2022-07-05T00:07:55;99325.00;;;21.72;72.17
52745;BME280;38637;49.984;20.426;2022-07-05T00:10:20;99318.50;;;21.68;72.15
52745;BME280;38637;49.984;20.426;2022-07-05T00:12:45;99320.47;;;21.68;72.78
52745;BME280;38637;49.984;20.426;2022-07-05T00:15:11;99317.69;;;21.68;72.79
52745;BME280;38637;49.984;20.426;2022-07-05T00:17:36;99321.41;;;21.72;72.85
52745;BME280;38637;49.984;20.426;2022-07-05T00:20:01;99324.66;;;21.74;72.78
52745;BME280;38637;49.984;20.426;2022-07-05T00:22:28;99325.81;;;21.73;72.70
52745;BME280;38637;49.984;20.426;2022-07-05T00:24:53;99329.06;;;21.75;72.63
52745;BME280;38637;49.984;20.426;2022-07-05T00:27:18;99342.97;;;21.75;72.76
52745;BME280;38637;49.984;20.426;2022-07-05T00:29:44;99340.66;;;21.77;72.87
52745;BME280;38637;49.984;20.426;2022-07-05T00:32:09;99343.91;;;21.79;72.43
52745;BME280;38637;49.984;20.426;2022-07-05T00:34:35;99343.09;;;21.78;72.05
52745;BME280;38637;49.984;20.426;2022-07-05T00:37:00;99345.75;;;21.75;72.12
52745;BME280;38637;49.984;20.426;2022-07-05T00:39:25;99318.41;;;21.56;72.48
52745;BME280;38637;49.984;20.426;2022-07-05T00:41:51;99343.00;;;21.66;72.16
52745;BME280;38637;49.984;20.426;2022-07-05T00:44:17;99341.72;;;21.64;72.55
52745;BME280;38637;49.984;20.426;2022-07-05T00:46:42;99348.78;;;21.61;72.88
52745;BME280;38637;49.984;20.426;2022-07-05T00:49:08;99348.44;;;21.63;72.93
52745;BME280;38637;49.984;20.426;2022-07-05T00:51:34;99348.44;;;21.63;72.82
52745;BME280;38637;49.984;20.426;2022-07-05T00:54:00;99340.09;;;21.63;73.00
52745;BME280;38637;49.984;20.426;2022-07-05T00:56:26;99342.69;;;21.68;72.62
52745;BME280;38637;49.984;20.426;2022-07-05T00:58:51;99351.50;;;21.70;72.49
52745;BME280;38637;49.984;20.426;2022-07-05T01:01:17;99351.97;;;21.72;72.40
52745;BME280;38637;49.984;20.426;2022-07-05T01:03:42;99354.44;;;21.73;72.31
52745;BME280;38637;49.984;20.426;2022-07-05T01:06:09;99363.22;;;21.75;72.24
52745;BME280;38637;49.984;20.426;2022-07-05T01:08:35;99360.94;;;21.77;72.22
52745;BME280;38637;49.984;20.426;2022-07-05T01:11:00;99371.38;;;21.80;72.35
52745;BME280;38637;49.984;20.426;2022-07-05T01:13:26;99367.00;;;21.79;72.13
52745;BME280;38637;49.984;20.426;2022-07-05T01:15:51;99358.47;;;21.76;72.37
52745;BME280;38637;49.984;20.426;2022-07-05T01:18:16;99360.59;;;21.79;72.21
52745;BME280;38637;49.984;20.426;2022-07-05T01:20:43;99367.94;;;21.84;72.18
52745;BME280;38637;49.984;20.426;2022-07-05T01:23:08;99373.16;;;21.85;72.30
52745;BME280;38637;49.984;20.426;2022-07-05T01:25:34;99367.94;;;21.84;72.43
52745;BME280;38637;49.984;20.426;2022-07-05T01:27:59;99365.16;;;21.84;72.33
52745;BME280;38637;49.984;20.426;2022-07-05T01:32:50;99365.97;;;21.84;72.05
52745;BME280;38637;49.984;20.426;2022-07-05T01:35:16;99361.22;;;21.85;71.82
52745;BME280;38637;49.984;20.426;2022-07-05T01:37:45;99366.63;;;21.81;71.98
52745;BME280;38637;49.984;20.426;2022-07-05T01:40:11;99367.31;;;21.78;72.18
52745;BME280;38637;49.984;20.426;2022-07-05T01:42:37;99374.69;;;21.74;72.46
52745;BME280;38637;49.984;20.426;2022-07-05T01:45:03;99378.81;;;21.68;72.75
52745;BME280;38637;49.984;20.426;2022-07-05T01:47:28;99379.34;;;21.61;73.37
52745;BME280;38637;49.984;20.426;2022-07-05T01:49:53;99385.41;;;21.54;73.43
52745;BME280;38637;49.984;20.426;2022-07-05T01:52:21;99381.81;;;21.54;73.32
52745;BME280;38637;49.984;20.426;2022-07-05T01:54:46;99370.38;;;21.55;73.11
52745;BME280;38637;49.984;20.426;2022-07-05T01:57:11;99373.63;;;21.57;73.12
52745;BME280;38637;49.984;20.426;2022-07-05T01:59:37;99373.31;;;21.59;72.70
52745;BME280;38637;49.984;20.426;2022-07-05T02:02:03;99375.72;;;21.61;72.54
52745;BME280;38637;49.984;20.426;2022-07-05T02:04:29;99377.19;;;21.67;72.32
52745;BME280;38637;49.984;20.426;2022-07-05T02:06:54;99370.13;;;21.69;72.35
52745;BME280;38637;49.984;20.426;2022-07-05T02:09:19;99376.66;;;21.73;72.02
52745;BME280;38637;49.984;20.426;2022-07-05T02:11:45;99377.63;;;21.77;71.81
52745;BME280;38637;49.984;20.426;2022-07-05T02:14:10;99374.16;;;21.80;71.26
52745;BME280;38637;49.984;20.426;2022-07-05T02:16:36;99374.50;;;21.79;71.71
52745;BME280;38637;49.984;20.426;2022-07-05T02:19:02;99357.00;;;21.78;71.98
52745;BME280;38637;49.984;20.426;2022-07-05T02:21:27;99362.69;;;21.82;71.67
52745;BME280;38637;49.984;20.426;2022-07-05T02:23:52;99362.03;;;21.85;71.88
52745;BME280;38637;49.984;20.426;2022-07-05T02:26:17;99370.19;;;21.90;71.48
52745;BME280;38637;49.984;20.426;2022-07-05T02:28:42;99363.63;;;21.95;71.94
52745;BME280;38637;49.984;20.426;2022-07-05T02:31:08;99360.97;;;21.98;71.42
52745;BME280;38637;49.984;20.426;2022-07-05T02:33:33;99366.31;;;22.03;71.31
52745;BME280;38637;49.984;20.426;2022-07-05T02:36:08;99360.56;;;22.09;70.80
52745;BME280;38637;49.984;20.426;2022-07-05T02:38:34;99367.06;;;22.13;70.48
52745;BME280;38637;49.984;20.426;2022-07-05T02:40:59;99371.66;;;22.17;69.94
52745;BME280;38637;49.984;20.426;2022-07-05T02:43:25;99379.31;;;22.20;69.79
52745;BME280;38637;49.984;20.426;2022-07-05T02:45:50;99374.69;;;22.24;69.47
52745;BME280;38637;49.984;20.426;2022-07-05T02:48:15;99371.72;;;22.30;69.24
52745;BME280;38637;49.984;20.426;2022-07-05T02:50:40;99367.09;;;22.34;68.43
52745;BME280;38637;49.984;20.426;2022-07-05T02:53:05;99366.78;;;22.35;68.46
52745;BME280;38637;49.984;20.426;2022-07-05T02:55:31;99367.22;;;22.37;68.64
52745;BME280;38637;49.984;20.426;2022-07-05T02:57:56;99365.72;;;22.40;68.30
52745;BME280;38637;49.984;20.426;2022-07-05T03:00:22;99367.38;;;22.41;68.32
52745;BME280;38637;49.984;20.426;2022-07-05T03:02:48;99366.69;;;22.44;68.18
52745;BME280;38637;49.984;20.426;2022-07-05T03:05:13;99371.91;;;22.45;68.35
52745;BME280;38637;49.984;20.426;2022-07-05T03:07:38;99363.06;;;22.43;67.94
52745;BME280;38637;49.984;20.426;2022-07-05T03:10:03;99376.84;;;22.40;67.91
52745;BME280;38637;49.984;20.426;2022-07-05T03:12:29;99368.06;;;22.38;68.05
52745;BME280;38637;49.984;20.426;2022-07-05T03:14:54;99367.56;;;22.36;67.51
52745;BME280;38637;49.984;20.426;2022-07-05T03:17:19;99362.69;;;22.33;67.91
52745;BME280;38637;49.984;20.426;2022-07-05T03:19:44;99374.63;;;22.33;68.41
52745;BME280;38637;49.984;20.426;2022-07-05T03:22:10;99376.59;;;22.33;68.45
52745;BME280;38637;49.984;20.426;2022-07-05T03:24:35;99386.13;;;22.32;68.13
52745;BME280;38637;49.984;20.426;2022-07-05T03:27:00;99381.34;;;22.32;68.75
52745;BME280;38637;49.984;20.426;2022-07-05T03:29:26;99385.16;;;22.28;68.54
52745;BME280;38637;49.984;20.426;2022-07-05T03:31:52;99393.34;;;22.24;68.79
52745;BME280;38637;49.984;20.426;2022-07-05T03:34:17;99396.00;;;22.20;69.07
52745;BME280;38637;49.984;20.426;2022-07-05T03:36:43;99403.88;;;22.18;68.53
52745;BME280;38637;49.984;20.426;2022-07-05T03:39:08;99412.34;;;22.22;68.34
52745;BME280;38637;49.984;20.426;2022-07-05T03:41:33;99428.72;;;22.23;68.28
52745;BME280;38637;49.984;20.426;2022-07-05T03:43:58;99437.88;;;22.24;67.99
52745;BME280;38637;49.984;20.426;2022-07-05T03:46:23;99441.31;;;22.21;67.69
52745;BME280;38637;49.984;20.426;2022-07-05T03:48:48;99450.47;;;22.21;68.04
52745;BME280;38637;49.984;20.426;2022-07-05T03:51:14;99461.28;;;22.23;68.67
52745;BME280;38637;49.984;20.426;2022-07-05T03:53:39;99468.34;;;22.20;68.96
52745;BME280;38637;49.984;20.426;2022-07-05T03:56:04;99474.41;;;22.14;70.71
52745;BME280;38637;49.984;20.426;2022-07-05T03:58:29;99482.78;;;22.05;71.68
52745;BME280;38637;49.984;20.426;2022-07-05T04:00:55;99484.13;;;21.99;72.48
52745;BME280;38637;49.984;20.426;2022-07-05T04:03:20;99477.44;;;21.91;72.86
52745;BME280;38637;49.984;20.426;2022-07-05T04:05:45;99483.88;;;21.83;73.69
52745;BME280;38637;49.984;20.426;2022-07-05T04:08:10;99478.69;;;21.73;74.35
52745;BME280;38637;49.984;20.426;2022-07-05T04:10:36;99485.25;;;21.68;75.23
52745;BME280;38637;49.984;20.426;2022-07-05T04:13:01;99475.31;;;21.59;75.45
52745;BME280;38637;49.984;20.426;2022-07-05T04:15:26;99467.97;;;21.54;76.92
52745;BME280;38637;49.984;20.426;2022-07-05T04:17:53;99461.16;;;21.43;77.51
52745;BME280;38637;49.984;20.426;2022-07-05T04:20:19;99449.72;;;21.36;77.68
52745;BME280;38637;49.984;20.426;2022-07-05T04:22:46;99456.44;;;21.26;77.91
52745;BME280;38637;49.984;20.426;2022-07-05T04:25:11;99454.47;;;21.18;78.45
52745;BME280;38637;49.984;20.426;2022-07-05T04:27:50;99451.22;;;21.16;79.47
52745;BME280;38637;49.984;20.426;2022-07-05T04:30:15;99453.38;;;21.10;79.19
52745;BME280;38637;49.984;20.426;2022-07-05T04:32:41;99452.22;;;21.02;79.71
52745;BME280;38637;49.984;20.426;2022-07-05T04:35:06;99444.75;;;20.94;79.81
52745;BME280;38637;49.984;20.426;2022-07-05T04:37:32;99439.03;;;20.82;79.37
52745;BME280;38637;49.984;20.426;2022-07-05T04:39:57;99429.72;;;20.78;79.23
52745;BME280;38637;49.984;20.426;2022-07-05T04:42:22;99429.56;;;20.74;79.01
52745;BME280;38637;49.984;20.426;2022-07-05T04:44:47;99438.03;;;20.69;78.84
52745;BME280;38637;49.984;20.426;2022-07-05T04:47:13;99438.38;;;20.68;79.05
52745;BME280;38637;49.984;20.426;2022-07-05T04:49:38;99436.75;;;20.67;79.41
52745;BME280;38637;49.984;20.426;2022-07-05T04:52:03;99435.78;;;20.71;79.80
52745;BME280;38637;49.984;20.426;2022-07-05T04:54:29;99428.59;;;20.70;79.94
52745;BME280;38637;49.984;20.426;2022-07-05T04:56:54;99430.38;;;20.66;80.03
52745;BME280;38637;49.984;20.426;2022-07-05T04:59:19;99425.97;;;20.65;80.36
52745;BME280;38637;49.984;20.426;2022-07-05T05:01:44;99430.72;;;20.64;80.61
52745;BME280;38637;49.984;20.426;2022-07-05T05:04:09;99431.38;;;20.61;80.50
52745;BME280;38637;49.984;20.426;2022-07-05T05:06:35;99433.50;;;20.64;80.58
52745;BME280;38637;49.984;20.426;2022-07-05T05:09:00;99436.91;;;20.70;80.03
52745;BME280;38637;49.984;20.426;2022-07-05T05:11:25;99446.72;;;20.76;80.02
52745;BME280;38637;49.984;20.426;2022-07-05T05:13:50;99440.00;;;20.77;79.83
52745;BME280;38637;49.984;20.426;2022-07-05T05:16:16;99440.50;;;20.79;79.57
52745;BME280;38637;49.984;20.426;2022-07-05T05:18:41;99448.19;;;20.82;79.46
52745;BME280;38637;49.984;20.426;2022-07-05T05:21:06;99443.28;;;20.88;78.65
52745;BME280;38637;49.984;20.426;2022-07-05T05:23:31;99442.94;;;20.89;78.88
52745;BME280;38637;49.984;20.426;2022-07-05T05:25:57;99442.94;;;20.89;79.16
52745;BME280;38637;49.984;20.426;2022-07-05T05:28:22;99441.78;;;20.91;78.94
52745;BME280;38637;49.984;20.426;2022-07-05T05:30:47;99435.41;;;20.99;79.15
52745;BME280;38637;49.984;20.426;2022-07-05T05:33:12;99442.09;;;21.06;78.87
52745;BME280;38637;49.984;20.426;2022-07-05T05:35:37;99443.22;;;21.14;78.93
52745;BME280;38637;49.984;20.426;2022-07-05T05:38:03;99449.41;;;21.20;78.98
52745;BME280;38637;49.984;20.426;2022-07-05T05:40:28;99455.94;;;21.24;79.06
52745;BME280;38637;49.984;20.426;2022-07-05T05:42:53;99446.63;;;21.28;79.17
52745;BME280;38637;49.984;20.426;2022-07-05T05:45:19;99443.84;;;21.28;79.41
52745;BME280;38637;49.984;20.426;2022-07-05T05:47:45;99455.09;;;21.32;79.32
52745;BME280;38637;49.984;20.426;2022-07-05T05:50:11;99446.09;;;21.35;79.00
52745;BME280;38637;49.984;20.426;2022-07-05T05:52:37;99444.16;;;21.36;78.56
52745;BME280;38637;49.984;20.426;2022-07-05T05:55:02;99446.63;;;21.37;78.43
52745;BME280;38637;49.984;20.426;2022-07-05T05:57:27;99449.22;;;21.42;78.87
52745;BME280;38637;49.984;20.426;2022-07-05T05:59:52;99452.47;;;21.44;79.01
52745;BME280;38637;49.984;20.426;2022-07-05T06:02:17;99457.72;;;21.46;78.36
52745;BME280;38637;49.984;20.426;2022-07-05T06:04:43;99455.41;;;21.48;78.02
52745;BME280;38637;49.984;20.426;2022-07-05T06:07:08;99450.34;;;21.50;78.05
52745;BME280;38637;49.984;20.426;2022-07-05T06:09:33;99464.06;;;21.55;78.38
52745;BME280;38637;49.984;20.426;2022-07-05T06:11:58;99472.03;;;21.56;77.83
52745;BME280;38637;49.984;20.426;2022-07-05T06:14:24;99457.16;;;21.61;78.03
52745;BME280;38637;49.984;20.426;2022-07-05T06:16:49;99468.09;;;21.66;78.45
52745;BME280;38637;49.984;20.426;2022-07-05T06:19:14;99471.50;;;21.72;77.95
52745;BME280;38637;49.984;20.426;2022-07-05T06:21:39;99474.09;;;21.77;78.58
52745;BME280;38637;49.984;20.426;2022-07-05T06:24:04;99472.28;;;21.81;77.98
52745;BME280;38637;49.984;20.426;2022-07-05T06:26:30;99478.97;;;21.89;77.48
52745;BME280;38637;49.984;20.426;2022-07-05T06:28:55;99477.63;;;21.95;76.72
52745;BME280;38637;49.984;20.426;2022-07-05T06:31:20;99482.16;;;21.99;76.65
52745;BME280;38637;49.984;20.426;2022-07-05T06:33:45;99487.53;;;22.05;76.32
52745;BME280;38637;49.984;20.426;2022-07-05T06:36:11;99488.50;;;22.09;75.92
52745;BME280;38637;49.984;20.426;2022-07-05T06:38:36;99489.31;;;22.09;75.66
52745;BME280;38637;49.984;20.426;2022-07-05T06:41:01;99498.94;;;22.12;76.20
52745;BME280;38637;49.984;20.426;2022-07-05T06:43:26;99485.53;;;22.14;76.23
52745;BME280;38637;49.984;20.426;2022-07-05T06:45:52;99500.91;;;22.20;75.84
52745;BME280;38637;49.984;20.426;2022-07-05T06:48:17;99503.47;;;22.25;75.72
52745;BME280;38637;49.984;20.426;2022-07-05T06:50:43;99513.94;;;22.28;75.14
52745;BME280;38637;49.984;20.426;2022-07-05T06:53:08;99514.78;;;22.29;73.79
52745;BME280;38637;49.984;20.426;2022-07-05T06:55:34;99518.34;;;22.29;74.31
52745;BME280;38637;49.984;20.426;2022-07-05T06:58:00;99521.81;;;22.26;75.12
52745;BME280;38637;49.984;20.426;2022-07-05T07:00:26;99523.63;;;22.22;75.33
52745;BME280;38637;49.984;20.426;2022-07-05T07:02:51;99531.16;;;22.21;75.19
52745;BME280;38637;49.984;20.426;2022-07-05T07:05:16;99528.72;;;22.20;75.25
52745;BME280;38637;49.984;20.426;2022-07-05T07:07:42;99537.75;;;22.17;75.12
52745;BME280;38637;49.984;20.426;2022-07-05T07:10:25;99548.19;;;22.11;75.80
52745;BME280;38637;49.984;20.426;2022-07-05T07:12:51;99551.66;;;22.08;76.30
52745;BME280;38637;49.984;20.426;2022-07-05T07:15:16;99553.13;;;22.06;76.26
52745;BME280;38637;49.984;20.426;2022-07-05T07:17:41;99558.88;;;22.00;76.91
52745;BME280;38637;49.984;20.426;2022-07-05T07:20:08;99550.59;;;21.92;77.51
52745;BME280;38637;49.984;20.426;2022-07-05T07:22:33;99557.94;;;21.88;78.16
52745;BME280;38637;49.984;20.426;2022-07-05T07:25:00;99560.56;;;21.84;78.50
52745;BME280;38637;49.984;20.426;2022-07-05T07:27:25;99561.38;;;21.85;78.75
52745;BME280;38637;49.984;20.426;2022-07-05T07:29:50;99562.41;;;21.80;78.50
52745;BME280;38637;49.984;20.426;2022-07-05T07:32:16;99554.72;;;21.77;79.31
52745;BME280;38637;49.984;20.426;2022-07-05T07:34:42;99553.06;;;21.76;79.11
52745;BME280;38637;49.984;20.426;2022-07-05T07:37:07;99557.34;;;21.73;79.35
52745;BME280;38637;49.984;20.426;2022-07-05T07:39:34;99557.84;;;21.67;79.72
52745;BME280;38637;49.984;20.426;2022-07-05T07:41:59;99556.22;;;21.66;80.85
52745;BME280;38637;49.984;20.426;2022-07-05T07:44:24;99558.31;;;21.69;80.16
52745;BME280;38637;49.984;20.426;2022-07-05T07:46:49;99564.22;;;21.67;79.68
52745;BME280;38637;49.984;20.426;2022-07-05T07:49:15;99569.44;;;21.69;80.26
52745;BME280;38637;49.984;20.426;2022-07-05T07:51:40;99564.03;;;21.72;80.25
52745;BME280;38637;49.984;20.426;2022-07-05T07:54:06;99560.94;;;21.74;80.03
52745;BME280;38637;49.984;20.426;2022-07-05T07:56:31;99564.69;;;21.78;80.61
52745;BME280;38637;49.984;20.426;2022-07-05T07:58:56;99569.56;;;21.81;80.50
52745;BME280;38637;49.984;20.426;2022-07-05T08:01:22;99568.25;;;21.87;79.97
52745;BME280;38637;49.984;20.426;2022-07-05T08:03:47;99565.81;;;21.86;79.10
52745;BME280;38637;49.984;20.426;2022-07-05T08:06:13;99557.66;;;21.80;78.89
52745;BME280;38637;49.984;20.426;2022-07-05T08:08:39;99555.53;;;21.77;79.21
52745;BME280;38637;49.984;20.426;2022-07-05T08:11:05;99563.72;;;21.74;79.28
52745;BME280;38637;49.984;20.426;2022-07-05T08:13:30;99568.78;;;21.72;79.53
52745;BME280;38637;49.984;20.426;2022-07-05T08:15:56;99562.41;;;21.71;79.75
52745;BME280;38637;49.984;20.426;2022-07-05T08:18:21;99564.38;;;21.71;79.17
52745;BME280;38637;49.984;20.426;2022-07-05T08:21:05;99560.59;;;21.75;79.54
52745;BME280;38637;49.984;20.426;2022-07-05T08:23:49;99550.28;;;21.76;79.21
52745;BME280;38637;49.984;20.426;2022-07-05T08:26:14;99552.75;;;21.77;79.51
52745;BME280;38637;49.984;20.426;2022-07-05T08:28:39;99552.59;;;21.74;79.14
52745;BME280;38637;49.984;20.426;2022-07-05T08:31:05;99542.16;;;21.71;79.55
52745;BME280;38637;49.984;20.426;2022-07-05T08:33:31;99547.22;;;21.69;79.15
52745;BME280;38637;49.984;20.426;2022-07-05T08:35:56;99540.03;;;21.68;79.04
52745;BME280;38637;49.984;20.426;2022-07-05T08:38:21;99538.88;;;21.69;78.93
52745;BME280;38637;49.984;20.426;2022-07-05T08:40:47;99543.91;;;21.75;79.18
52745;BME280;38637;49.984;20.426;2022-07-05T08:43:14;99549.31;;;21.80;78.94
52745;BME280;38637;49.984;20.426;2022-07-05T08:45:40;99559.91;;;21.87;79.08
52745;BME280;38637;49.984;20.426;2022-07-05T08:48:07;99554.31;;;21.96;79.06
52745;BME280;38637;49.984;20.426;2022-07-05T08:50:33;99550.84;;;22.08;78.74
52745;BME280;38637;49.984;20.426;2022-07-05T08:52:59;99549.97;;;22.16;78.20
52745;BME280;38637;49.984;20.426;2022-07-05T08:55:24;99549.63;;;22.26;78.09
52745;BME280;38637;49.984;20.426;2022-07-05T08:57:50;99550.72;;;22.34;77.72
52745;BME280;38637;49.984;20.426;2022-07-05T09:00:15;99542.69;;;22.41;77.72
52745;BME280;38637;49.984;20.426;2022-07-05T09:02:41;99541.38;;;22.38;77.27
52745;BME280;38637;49.984;20.426;2022-07-05T09:05:07;99526.03;;;22.32;77.36
52745;BME280;38637;49.984;20.426;2022-07-05T09:07:37;99525.41;;;22.27;77.61
52745;BME280;38637;49.984;20.426;2022-07-05T09:10:06;99523.16;;;22.20;77.30
52745;BME280;38637;49.984;20.426;2022-07-05T09:12:32;99530.69;;;22.11;77.50
52745;BME280;38637;49.984;20.426;2022-07-05T09:14:58;99537.41;;;22.10;78.28
52745;BME280;38637;49.984;20.426;2022-07-05T09:17:23;99538.22;;;22.10;78.45
52745;BME280;38637;49.984;20.426;2022-07-05T09:20:13;99531.50;;;22.11;78.41
52745;BME280;38637;49.984;20.426;2022-07-05T09:22:43;99527.25;;;22.14;78.37
52745;BME280;38637;49.984;20.426;2022-07-05T09:25:19;99527.44;;;22.09;78.63
52745;BME280;38637;49.984;20.426;2022-07-05T09:30:24;99531.53;;;22.02;79.00
52745;BME280;38637;49.984;20.426;2022-07-05T09:32:59;99531.41;;;21.99;79.14
52745;BME280;38637;49.984;20.426;2022-07-05T09:35:25;99524.88;;;21.95;78.99
52745;BME280;38637;49.984;20.426;2022-07-05T09:37:50;99519.50;;;21.90;78.93
52745;BME280;38637;49.984;20.426;2022-07-05T09:40:16;99508.56;;;21.85;79.14
52745;BME280;38637;49.984;20.426;2022-07-05T09:42:42;99514.78;;;21.82;79.97
52745;BME280;38637;49.984;20.426;2022-07-05T09:45:07;99526.25;;;21.80;80.21
52745;BME280;38637;49.984;20.426;2022-07-05T09:47:33;99519.69;;;21.85;80.87
52745;BME280;38637;49.984;20.426;2022-07-05T09:49:59;99528.16;;;21.88;80.67
52745;BME280;38637;49.984;20.426;2022-07-05T09:52:38;99528.00;;;21.93;80.54
52745;BME280;38637;49.984;20.426;2022-07-05T09:57:29;99523.19;;;22.02;80.46
52745;BME280;38637;49.984;20.426;2022-07-05T09:59:58;99524.16;;;22.07;80.38
52745;BME280;38637;49.984;20.426;2022-07-05T10:05:14;99522.22;;;22.07;80.48
52745;BME280;38637;49.984;20.426;2022-07-05T10:07:42;99533.81;;;22.09;80.73
52745;BME280;38637;49.984;20.426;2022-07-05T10:10:10;99534.28;;;22.11;81.52
52745;BME280;38637;49.984;20.426;2022-07-05T10:12:36;99523.66;;;22.13;81.28
52745;BME280;38637;49.984;20.426;2022-07-05T10:15:02;99522.34;;;22.19;81.10
52745;BME280;38637;49.984;20.426;2022-07-05T10:17:27;99531.28;;;22.25;81.06
52745;BME280;38637;49.984;20.426;2022-07-05T10:19:53;99525.91;;;22.29;80.62
52745;BME280;38637;49.984;20.426;2022-07-05T10:22:19;99524.38;;;22.31;80.39
52745;BME280;38637;49.984;20.426;2022-07-05T10:24:44;99535.06;;;22.29;80.18
52745;BME280;38637;49.984;20.426;2022-07-05T10:27:10;99527.03;;;22.28;79.83
52745;BME280;38637;49.984;20.426;2022-07-05T10:29:36;99525.41;;;22.27;79.60
52745;BME280;38637;49.984;20.426;2022-07-05T10:32:02;99531.78;;;22.27;79.48
52745;BME280;38637;49.984;20.426;2022-07-05T10:34:28;99521.59;;;22.31;79.36
52745;BME280;38637;49.984;20.426;2022-07-05T10:36:54;99515.38;;;22.34;78.83
52745;BME280;38637;49.984;20.426;2022-07-05T10:39:19;99518.31;;;22.38;78.23
52745;BME280;38637;49.984;20.426;2022-07-05T10:41:48;99512.88;;;22.41;77.99
52745;BME280;38637;49.984;20.426;2022-07-05T10:44:25;99512.84;;;22.50;77.84
52745;BME280;38637;49.984;20.426;2022-07-05T10:46:51;99510.31;;;22.57;77.19
52745;BME280;38637;49.984;20.426;2022-07-05T10:49:16;99508.84;;;22.60;76.97
52745;BME280;38637;49.984;20.426;2022-07-05T10:51:44;99513.84;;;22.66;76.98
52745;BME280;38637;49.984;20.426;2022-07-05T10:54:10;99518.75;;;22.69;76.81
52745;BME280;38637;49.984;20.426;2022-07-05T10:56:36;99518.06;;;22.73;75.94
52745;BME280;38637;49.984;20.426;2022-07-05T10:59:07;99520.16;;;22.76;76.29
52745;BME280;38637;49.984;20.426;2022-07-05T11:01:35;99511.94;;;22.79;76.30
52745;BME280;38637;49.984;20.426;2022-07-05T11:06:39;99508.34;;;22.79;75.73
52745;BME280;38637;49.984;20.426;2022-07-05T11:11:36;99511.00;;;22.75;76.42
52745;BME280;38637;49.984;20.426;2022-07-05T11:14:04;99508.91;;;22.72;76.24
52745;BME280;38637;49.984;20.426;2022-07-05T11:19:31;99497.03;;;22.63;76.22
52745;BME280;38637;49.984;20.426;2022-07-05T11:22:00;99498.31;;;22.65;76.81
52745;BME280;38637;49.984;20.426;2022-07-05T11:24:26;99505.16;;;22.68;76.93
52745;BME280;38637;49.984;20.426;2022-07-05T11:26:52;99503.53;;;22.67;76.94
52745;BME280;38637;49.984;20.426;2022-07-05T11:32:05;99509.91;;;22.67;77.03
52745;BME280;38637;49.984;20.426;2022-07-05T11:34:33;99511.06;;;22.66;77.61
52745;BME280;38637;49.984;20.426;2022-07-05T11:39:40;99489.34;;;22.60;78.25
52745;BME280;38637;49.984;20.426;2022-07-05T11:42:05;99486.25;;;22.53;78.18
52745;BME280;38637;49.984;20.426;2022-07-05T11:44:34;99492.06;;;22.47;78.52
52745;BME280;38637;49.984;20.426;2022-07-05T11:46:59;99496.66;;;22.43;79.12
52745;BME280;38637;49.984;20.426;2022-07-05T11:49:25;99498.16;;;22.41;79.47
52745;BME280;38637;49.984;20.426;2022-07-05T11:51:54;99496.06;;;22.38;79.26
52745;BME280;38637;49.984;20.426;2022-07-05T11:54:23;99490.31;;;22.34;79.50
52745;BME280;38637;49.984;20.426;2022-07-05T11:56:48;99488.69;;;22.33;79.69
52745;BME280;38637;49.984;20.426;2022-07-05T11:59:22;99481.16;;;22.34;79.73
52745;BME280;38637;49.984;20.426;2022-07-05T12:01:48;99484.75;;;22.34;79.94
52745;BME280;38637;49.984;20.426;2022-07-05T12:06:48;99469.22;;;22.33;81.29
52745;BME280;38637;49.984;20.426;2022-07-05T12:09:14;99473.34;;;22.27;81.01
52745;BME280;38637;49.984;20.426;2022-07-05T12:11:39;99475.50;;;22.21;80.94
52745;BME280;38637;49.984;20.426;2022-07-05T12:14:23;99466.72;;;22.19;80.89
52745;BME280;38637;49.984;20.426;2022-07-05T12:17:10;99457.38;;;22.15;80.93
52745;BME280;38637;49.984;20.426;2022-07-05T12:19:35;99459.19;;;22.20;80.88
52745;BME280;38637;49.984;20.426;2022-07-05T12:22:00;99450.69;;;22.16;80.77
52745;BME280;38637;49.984;20.426;2022-07-05T12:24:25;99454.28;;;22.17;81.46
52745;BME280;38637;49.984;20.426;2022-07-05T12:26:50;99448.72;;;22.17;81.79
52745;BME280;38637;49.984;20.426;2022-07-05T12:29:16;99454.06;;;22.22;81.86
52745;BME280;38637;49.984;20.426;2022-07-05T12:32:03;99453.56;;;22.29;82.15
52745;BME280;38637;49.984;20.426;2022-07-05T12:34:29;99461.56;;;22.30;81.36
52745;BME280;38637;49.984;20.426;2022-07-05T12:36:55;99454.69;;;22.28;81.46
52745;BME280;38637;49.984;20.426;2022-07-05T12:39:20;99450.63;;;22.25;81.65
52745;BME280;38637;49.984;20.426;2022-07-05T12:41:46;99461.75;;;22.25;82.60
52745;BME280;38637;49.984;20.426;2022-07-05T12:44:11;99464.53;;;22.25;81.74
52745;BME280;38637;49.984;20.426;2022-07-05T12:46:37;99435.63;;;22.17;82.09
52745;BME280;38637;49.984;20.426;2022-07-05T12:49:03;99453.03;;;22.35;82.43
52745;BME280;38637;49.984;20.426;2022-07-05T12:51:32;99461.75;;;22.46;82.60
52745;BME280;38637;49.984;20.426;2022-07-05T12:53:58;99452.88;;;22.53;82.11
52745;BME280;38637;49.984;20.426;2022-07-05T12:56:55;99460.34;;;22.61;81.63
52745;BME280;38637;49.984;20.426;2022-07-05T12:59:39;99454.22;;;22.67;80.53
52745;BME280;38637;49.984;20.426;2022-07-05T13:02:05;99464.56;;;22.67;80.48
52745;BME280;38637;49.984;20.426;2022-07-05T13:04:31;99457.81;;;22.68;80.71
52745;BME280;38637;49.984;20.426;2022-07-05T13:07:01;99464.91;;;22.65;79.85
52745;BME280;38637;49.984;20.426;2022-07-05T13:12:03;99464.16;;;22.56;81.65
52745;BME280;38637;49.984;20.426;2022-07-05T13:14:29;99458.19;;;22.66;81.54